Time;durP1;ratioP1;P1;durP2;ratioP2;P2;SDS_P1;SDS_P2;PMS_P1;PMS_P2;Temp;Humidity;BMP_temperature;BMP_pressure;BME280_temperature;BME280_humidity;BME280_pressure;Samples;Min_cycle;Max_cycle;Signal;HPM_P1;HPM_P2
2021/05/23 00:02:17;;;;;;;1.75;0.40;;;11.80;85.30;;;;;;5013405;28;20056;-84
2021/05/23 00:04:44;;;;;;;0.55;0.50;;;11.70;85.20;;;;;;5008924;28;20096;-83
2021/05/23 00:07:11;;;;;;;1.38;0.55;;;11.70;85.50;;;;;;5015147;28;20116;-84
2021/05/23 00:09:37;;;;;;;0.85;0.40;;;11.70;85.80;;;;;;5004440;28;20348;-83
2021/05/23 00:12:13;;;;;;;0.70;0.68;;;11.70;85.80;;;;;;5012799;28;20108;-84
2021/05/23 00:14:39;;;;;;;1.25;0.50;;;11.60;86.30;;;;;;5006691;28;20121;-83
2021/05/23 00:17:05;;;;;;;0.80;0.43;;;11.60;86.30;;;;;;5012850;28;20104;-83
2021/05/23 00:19:31;;;;;;;0.40;0.40;;;11.60;86.40;;;;;;5009043;28;20042;-84
2021/05/23 00:21:56;;;;;;;1.73;0.60;;;11.60;86.40;;;;;;5016381;28;20104;-83
2021/05/23 00:24:24;;;;;;;1.48;0.28;;;11.60;86.30;;;;;;5022188;28;20038;-83
2021/05/23 00:26:50;;;;;;;1.35;0.45;;;11.60;86.60;;;;;;5016751;28;20034;-84
2021/05/23 00:29:16;;;;;;;0.60;0.50;;;11.50;86.40;;;;;;5013100;28;20266;-83
2021/05/23 00:31:41;;;;;;;1.08;0.60;;;11.50;86.80;;;;;;5013671;28;20038;-83
2021/05/23 00:34:07;;;;;;;0.60;0.50;;;11.50;86.80;;;;;;5007590;28;20053;-84
2021/05/23 00:36:33;;;;;;;0.52;0.52;;;11.50;87.00;;;;;;5005629;28;20046;-83
2021/05/23 00:38:59;;;;;;;0.50;0.40;;;11.50;86.80;;;;;;5016168;28;20045;-83
2021/05/23 00:41:24;;;;;;;0.52;0.50;;;11.50;86.80;;;;;;5027722;28;20046;-84
2021/05/23 00:43:50;;;;;;;0.73;0.40;;;11.40;87.20;;;;;;5006450;28;20045;-84
2021/05/23 00:46:16;;;;;;;1.92;0.60;;;11.50;87.80;;;;;;5012751;28;20053;-83
2021/05/23 00:48:41;;;;;;;1.98;0.55;;;11.50;87.20;;;;;;5009556;28;20042;-82
2021/05/23 00:51:07;;;;;;;4.13;1.02;;;11.40;86.80;;;;;;5007175;28;20124;-83
2021/05/23 00:53:32;;;;;;;0.40;0.40;;;11.40;86.90;;;;;;5008984;28;20108;-83
2021/05/23 00:55:58;;;;;;;1.05;0.52;;;11.50;87.10;;;;;;5011101;28;20045;-82
2021/05/23 00:58:24;;;;;;;2.55;0.75;;;11.50;86.70;;;;;;5016405;28;20057;-83
2021/05/23 01:00:55;;;;;;;1.65;1.00;;;11.50;87.00;;;;;;5007988;28;20041;-83
2021/05/23 01:03:27;;;;;;;0.90;0.50;;;11.50;86.70;;;;;;5007500;28;20042;-83
2021/05/23 01:06:01;;;;;;;0.82;0.63;;;11.50;86.40;;;;;;5022173;28;20042;-83
2021/05/23 01:08:28;;;;;;;1.00;0.40;;;11.60;86.40;;;;;;5009797;28;20041;-82
2021/05/23 01:11:01;;;;;;;0.85;0.40;;;11.60;86.60;;;;;;5002876;28;20124;-82
2021/05/23 01:13:37;;;;;;;0.82;0.43;;;11.60;86.70;;;;;;5013478;28;20042;-82
2021/05/23 01:16:12;;;;;;;2.03;0.55;;;11.60;86.50;;;;;;5009314;28;20053;-82
2021/05/23 01:18:50;;;;;;;1.52;0.60;;;11.60;86.20;;;;;;5010826;28;20044;-82
2021/05/23 01:21:18;;;;;;;1.20;0.50;;;11.70;86.00;;;;;;5004838;28;20115;-82
2021/05/23 01:23:45;;;;;;;0.50;0.50;;;11.70;85.70;;;;;;5011833;28;20045;-82
2021/05/23 01:26:14;;;;;;;3.53;0.52;;;11.70;85.90;;;;;;5001921;28;20432;-83
2021/05/23 01:28:47;;;;;;;2.83;0.50;;;11.80;85.70;;;;;;5004748;28;20034;-83
2021/05/23 01:31:16;;;;;;;1.15;0.50;;;11.70;85.50;;;;;;5004734;28;20093;-82
2021/05/23 01:33:43;;;;;;;1.42;0.50;;;11.70;86.30;;;;;;5022857;28;20042;-82
2021/05/23 01:36:10;;;;;;;1.17;0.63;;;11.70;86.00;;;;;;5013408;28;20034;-81
2021/05/23 01:38:36;;;;;;;0.55;0.40;;;11.80;86.00;;;;;;5010128;28;20034;-82
2021/05/23 01:41:05;;;;;;;1.35;0.85;;;11.80;85.80;;;;;;5005995;28;20038;-82
2021/05/23 01:43:32;;;;;;;0.98;0.77;;;11.90;86.00;;;;;;5011579;28;20042;-82
2021/05/23 01:45:58;;;;;;;0.95;0.50;;;11.90;85.60;;;;;;5009866;28;20125;-82
2021/05/23 01:48:24;;;;;;;0.63;0.45;;;11.90;85.40;;;;;;5006315;28;20139;-82
2021/05/23 01:50:50;;;;;;;2.75;0.55;;;11.80;85.10;;;;;;5014486;28;20200;-83
2021/05/23 01:53:15;;;;;;;0.93;0.60;;;11.90;85.30;;;;;;5005010;28;20137;-83
2021/05/23 01:55:41;;;;;;;0.85;0.50;;;11.80;85.20;;;;;;5006478;28;20056;-83
2021/05/23 01:58:07;;;;;;;0.68;0.40;;;11.80;85.40;;;;;;5001864;28;20074;-83
2021/05/23 02:00:35;;;;;;;1.77;0.60;;;11.80;85.80;;;;;;5002269;28;20131;-83
2021/05/23 02:03:03;;;;;;;0.70;0.50;;;11.80;85.20;;;;;;5005539;28;20614;-82
2021/05/23 02:05:29;;;;;;;1.35;0.60;;;11.80;85.50;;;;;;5012301;28;20128;-83
2021/05/23 02:07:55;;;;;;;0.60;0.60;;;11.80;85.60;;;;;;5003153;28;20121;-83
2021/05/23 02:10:21;;;;;;;1.52;0.60;;;11.80;85.60;;;;;;5014716;28;20436;-83
2021/05/23 02:12:46;;;;;;;0.40;0.40;;;11.80;85.60;;;;;;5009663;28;20097;-82
2021/05/23 02:15:15;;;;;;;0.70;0.50;;;11.80;85.60;;;;;;5010617;28;20406;-82
2021/05/23 02:17:42;;;;;;;1.50;0.50;;;11.90;85.40;;;;;;5009666;28;20490;-82
2021/05/23 02:20:11;;;;;;;2.17;0.60;;;11.90;85.50;;;;;;5003679;28;20034;-83
2021/05/23 02:22:39;;;;;;;0.73;0.40;;;11.90;85.60;;;;;;5009475;28;20356;-83
2021/05/23 02:25:06;;;;;;;2.15;0.88;;;11.90;85.70;;;;;;5008338;28;20116;-83
2021/05/23 02:27:40;;;;;;;0.60;0.50;;;11.90;86.30;;;;;;5017207;28;20137;-83
2021/05/23 02:30:13;;;;;;;2.25;1.08;;;12.00;86.50;;;;;;5020841;28;20323;-82
2021/05/23 02:32:39;;;;;;;0.50;0.50;;;12.00;86.20;;;;;;5010485;28;20043;-83
2021/05/23 02:35:06;;;;;;;1.25;0.60;;;11.90;86.50;;;;;;5007797;28;20109;-83
2021/05/23 02:37:32;;;;;;;0.52;0.50;;;12.00;86.70;;;;;;5015682;28;20133;-83
2021/05/23 02:40:01;;;;;;;1.15;0.40;;;12.00;86.90;;;;;;5013242;28;20043;-83
2021/05/23 02:42:27;;;;;;;0.82;0.40;;;12.00;86.70;;;;;;5023060;28;20081;-82
2021/05/23 02:44:52;;;;;;;0.45;0.30;;;12.00;86.80;;;;;;5015265;28;20042;-82
2021/05/23 02:47:18;;;;;;;2.08;0.70;;;11.90;86.90;;;;;;5012927;28;20106;-81
2021/05/23 02:49:44;;;;;;;0.85;0.40;;;11.90;86.90;;;;;;5011293;28;20038;-82
2021/05/23 02:52:11;;;;;;;1.70;0.50;;;11.90;86.70;;;;;;5006732;28;20077;-82
2021/05/23 02:54:37;;;;;;;0.82;0.50;;;11.90;86.50;;;;;;5010709;28;20058;-83
2021/05/23 02:57:03;;;;;;;2.17;0.70;;;11.90;86.30;;;;;;5001687;28;20103;-84
2021/05/23 02:59:28;;;;;;;3.58;0.47;;;11.90;86.20;;;;;;5018666;28;20046;-83
2021/05/23 03:01:54;;;;;;;1.55;0.55;;;11.80;86.10;;;;;;5008930;28;20053;-83
2021/05/23 03:04:20;;;;;;;0.60;0.47;;;11.80;86.40;;;;;;5002619;28;20232;-83
2021/05/23 03:06:45;;;;;;;0.55;0.50;;;11.70;86.70;;;;;;5003501;28;20046;-83
2021/05/23 03:09:11;;;;;;;0.68;0.40;;;11.70;87.00;;;;;;5025695;28;20069;-81
2021/05/23 03:11:36;;;;;;;0.95;0.65;;;11.60;87.30;;;;;;5009220;28;20033;-82
2021/05/23 03:14:02;;;;;;;1.10;0.52;;;11.60;87.80;;;;;;5011952;28;20136;-82
2021/05/23 03:16:27;;;;;;;0.52;0.40;;;11.60;88.20;;;;;;5000720;28;20042;-82
2021/05/23 03:18:53;;;;;;;0.65;0.57;;;11.60;88.20;;;;;;5010807;28;20057;-82
2021/05/23 03:21:18;;;;;;;0.55;0.40;;;11.60;88.10;;;;;;5002394;28;20040;-83
2021/05/23 03:23:44;;;;;;;0.80;0.47;;;11.50;88.00;;;;;;5005309;28;20378;-83
2021/05/23 03:26:09;;;;;;;1.20;0.50;;;11.50;87.90;;;;;;5015564;28;20034;-82
2021/05/23 03:28:35;;;;;;;1.52;0.75;;;11.40;87.90;;;;;;5003856;28;20046;-83
2021/05/23 03:31:00;;;;;;;4.75;0.80;;;11.40;88.00;;;;;;5005818;28;20069;-82
2021/05/23 03:33:26;;;;;;;2.17;0.50;;;11.40;88.00;;;;;;5005732;28;20065;-82
2021/05/23 03:35:51;;;;;;;1.50;0.82;;;11.40;88.20;;;;;;5020043;28;20112;-83
2021/05/23 03:38:17;;;;;;;1.30;0.88;;;11.40;87.80;;;;;;5008314;28;20333;-82
2021/05/23 03:40:42;;;;;;;1.00;0.70;;;11.40;87.90;;;;;;5008049;28;20038;-83
2021/05/23 03:43:09;;;;;;;0.60;0.50;;;11.40;87.90;;;;;;5007890;28;20042;-83
2021/05/23 03:45:35;;;;;;;0.98;0.55;;;11.40;88.00;;;;;;5011402;28;20041;-82
2021/05/23 03:48:01;;;;;;;0.90;0.57;;;11.30;88.00;;;;;;5013873;28;20105;-82
2021/05/23 03:50:27;;;;;;;1.27;0.70;;;11.40;87.90;;;;;;5012100;28;20046;-82
2021/05/23 03:52:55;;;;;;;3.10;0.70;;;11.30;88.00;;;;;;5000841;28;20067;-82
2021/05/23 03:55:22;;;;;;;2.88;0.50;;;11.30;88.10;;;;;;5014747;28;20080;-82
2021/05/23 03:57:48;;;;;;;3.13;0.93;;;11.40;87.70;;;;;;5010439;28;20053;-82
2021/05/23 04:00:15;;;;;;;2.75;1.25;;;11.40;88.20;;;;;;5017321;28;20397;-82
2021/05/23 04:02:47;;;;;;;2.53;0.65;;;11.30;88.10;;;;;;5017931;28;20073;-82
2021/05/23 04:05:13;;;;;;;2.50;1.00;;;11.30;88.10;;;;;;5012369;28;20115;-81
2021/05/23 04:07:39;;;;;;;5.07;0.52;;;11.40;88.20;;;;;;5005445;28;20045;-81
2021/05/23 04:10:06;;;;;;;1.60;0.68;;;11.40;87.90;;;;;;5014472;28;20050;-81
2021/05/23 04:12:39;;;;;;;0.90;0.57;;;11.50;88.00;;;;;;5007491;28;20108;-82
2021/05/23 04:15:06;;;;;;;2.70;0.68;;;11.50;88.00;;;;;;5008533;28;20046;-82
2021/05/23 04:17:31;;;;;;;0.80;0.65;;;11.50;87.70;;;;;;5014553;28;20078;-82
2021/05/23 04:19:57;;;;;;;1.80;0.50;;;11.50;87.70;;;;;;5019922;28;20057;-81
2021/05/23 04:22:23;;;;;;;1.23;0.57;;;11.50;87.60;;;;;;5024852;28;20037;-82
2021/05/23 04:24:48;;;;;;;2.17;0.70;;;11.50;87.50;;;;;;5018006;28;20464;-82
2021/05/23 04:27:15;;;;;;;2.58;0.50;;;11.50;87.40;;;;;;5034830;28;20439;-82
2021/05/23 04:29:41;;;;;;;2.70;0.50;;;11.50;87.40;;;;;;5007958;28;20065;-81
2021/05/23 04:32:07;;;;;;;1.73;1.17;;;11.50;87.50;;;;;;5008758;28;20643;-82
2021/05/23 04:34:35;;;;;;;0.55;0.47;;;11.50;87.20;;;;;;5010569;28;20041;-81
2021/05/23 04:37:00;;;;;;;0.60;0.60;;;11.60;86.90;;;;;;5011194;28;20044;-82
2021/05/23 04:39:26;;;;;;;5.47;0.57;;;11.60;86.70;;;;;;5008706;28;20034;-82
2021/05/23 04:41:51;;;;;;;1.20;0.80;;;11.60;87.00;;;;;;5011222;28;20038;-83
2021/05/23 04:44:17;;;;;;;1.98;0.70;;;11.60;86.60;;;;;;5003947;28;20417;-82
2021/05/23 04:46:42;;;;;;;2.10;0.80;;;11.70;86.40;;;;;;5006266;28;20101;-82
2021/05/23 04:49:08;;;;;;;2.25;0.68;;;11.80;85.90;;;;;;5000978;28;20048;-82
2021/05/23 04:51:33;;;;;;;1.77;0.60;;;12.00;86.00;;;;;;5004923;28;20085;-83
2021/05/23 04:53:59;;;;;;;1.95;0.50;;;12.00;85.00;;;;;;5015172;28;20037;-82
2021/05/23 04:56:24;;;;;;;1.33;0.70;;;12.20;85.00;;;;;;5006272;28;20405;-82
2021/05/23 04:58:50;;;;;;;0.90;0.47;;;12.30;84.00;;;;;;5012263;28;20053;-83
2021/05/23 05:01:15;;;;;;;1.42;0.50;;;12.40;83.40;;;;;;5002002;28;20073;-82
2021/05/23 05:03:41;;;;;;;0.60;0.50;;;12.50;83.70;;;;;;5005452;28;20283;-82
2021/05/23 05:06:06;;;;;;;1.65;0.77;;;12.60;83.10;;;;;;5006593;28;20030;-82
2021/05/23 05:08:32;;;;;;;2.30;0.55;;;12.60;82.80;;;;;;5017680;28;20377;-82
2021/05/23 05:10:58;;;;;;;2.38;0.68;;;12.60;83.40;;;;;;5016689;28;20041;-83
2021/05/23 05:13:23;;;;;;;1.77;0.63;;;12.60;83.70;;;;;;5004118;28;20121;-82
2021/05/23 05:15:49;;;;;;;2.22;0.52;;;12.70;83.70;;;;;;4999175;28;20042;-81
2021/05/23 05:18:14;;;;;;;7.47;0.70;;;12.70;83.30;;;;;;4998366;28;20298;-82
2021/05/23 05:20:40;;;;;;;2.67;0.60;;;12.60;83.50;;;;;;4997898;28;20528;-82
2021/05/23 05:23:06;;;;;;;2.67;0.60;;;12.60;83.60;;;;;;5014147;28;20042;-83
2021/05/23 05:25:32;;;;;;;3.15;0.60;;;12.60;83.70;;;;;;5010641;28;20034;-83
2021/05/23 05:27:57;;;;;;;2.42;0.60;;;12.60;83.80;;;;;;4998032;28;20038;-85
2021/05/23 05:30:24;;;;;;;2.55;0.75;;;12.60;83.60;;;;;;4998390;28;20039;-82
2021/05/23 05:32:49;;;;;;;2.05;0.50;;;12.60;83.90;;;;;;4999732;28;20035;-83
2021/05/23 05:35:15;;;;;;;1.67;0.85;;;12.60;83.60;;;;;;5001473;28;20042;-83
2021/05/23 05:37:40;;;;;;;0.65;0.55;;;12.60;84.00;;;;;;5007392;28;20048;-83
2021/05/23 05:40:07;;;;;;;0.82;0.50;;;12.70;83.90;;;;;;5017532;28;20049;-82
2021/05/23 05:42:32;;;;;;;0.90;0.45;;;12.80;83.10;;;;;;5016990;28;20033;-82
2021/05/23 05:44:58;;;;;;;0.77;0.50;;;12.80;83.00;;;;;;5017388;28;20030;-84
2021/05/23 05:47:23;;;;;;;1.52;0.55;;;12.90;82.40;;;;;;5000350;28;20042;-83
2021/05/23 05:49:49;;;;;;;5.53;1.20;;;12.90;82.20;;;;;;5016700;28;20048;-81
2021/05/23 05:52:15;;;;;;;3.30;0.65;;;12.90;82.30;;;;;;5016690;28;20390;-82
2021/05/23 05:54:40;;;;;;;1.48;0.50;;;13.00;82.00;;;;;;5007576;28;20041;-82
2021/05/23 05:57:06;;;;;;;2.15;0.57;;;13.00;81.70;;;;;;5010905;28;20382;-82
2021/05/23 05:59:31;;;;;;;2.67;0.82;;;13.10;82.60;;;;;;4997879;28;20125;-83
2021/05/23 06:01:56;;;;;;;4.47;0.52;;;13.20;82.00;;;;;;5030600;28;20103;-83
2021/05/23 06:04:22;;;;;;;3.58;0.60;;;13.10;81.20;;;;;;5017251;28;20038;-81
2021/05/23 06:06:47;;;;;;;1.73;0.57;;;13.20;81.30;;;;;;5018693;28;20146;-81
2021/05/23 06:09:13;;;;;;;3.42;0.60;;;13.20;80.80;;;;;;5018256;28;20411;-84
2021/05/23 06:11:38;;;;;;;1.17;0.40;;;13.30;81.50;;;;;;5003614;28;20038;-82
2021/05/23 06:14:04;;;;;;;1.80;0.52;;;13.30;80.50;;;;;;4997629;28;20121;-83
2021/05/23 06:16:29;;;;;;;0.50;0.40;;;13.30;81.30;;;;;;4999741;28;20045;-84
2021/05/23 06:18:55;;;;;;;1.48;0.63;;;13.30;80.30;;;;;;5017606;28;20342;-82
2021/05/23 06:21:20;;;;;;;2.60;0.68;;;13.40;80.00;;;;;;5012526;28;20049;-83
2021/05/23 06:23:46;;;;;;;3.08;0.80;;;13.40;80.30;;;;;;4999162;28;20042;-83
2021/05/23 06:26:14;;;;;;;1.45;0.43;;;13.40;80.10;;;;;;5016415;28;20378;-83
2021/05/23 06:28:43;;;;;;;2.42;0.68;;;13.50;80.70;;;;;;5015375;28;20046;-83
2021/05/23 06:31:09;;;;;;;1.45;0.50;;;13.50;80.30;;;;;;5017218;28;20369;-83
2021/05/23 06:33:35;;;;;;;3.40;0.82;;;13.60;80.40;;;;;;5016184;28;20042;-82
2021/05/23 06:36:01;;;;;;;1.27;0.60;;;13.60;79.80;;;;;;5013985;28;20049;-82
2021/05/23 06:38:26;;;;;;;1.20;0.70;;;13.70;79.00;;;;;;4997440;28;20492;-83
2021/05/23 06:40:52;;;;;;;1.83;0.63;;;13.70;79.10;;;;;;4996888;28;20592;-83
2021/05/23 06:43:18;;;;;;;1.73;0.85;;;13.70;79.80;;;;;;5016603;28;20033;-83
2021/05/23 06:45:44;;;;;;;0.73;0.38;;;13.70;80.00;;;;;;5018497;28;20100;-83
2021/05/23 06:48:10;;;;;;;2.22;0.60;;;13.80;79.20;;;;;;5016695;28;20041;-83
2021/05/23 06:50:37;;;;;;;1.55;0.47;;;13.90;78.80;;;;;;5005324;28;20417;-83
2021/05/23 06:53:04;;;;;;;1.55;0.50;;;14.10;78.50;;;;;;5000435;28;20272;-82
2021/05/23 06:55:30;;;;;;;4.28;0.80;;;14.20;78.40;;;;;;5013067;28;20053;-83
2021/05/23 06:57:55;;;;;;;0.75;0.50;;;14.30;78.10;;;;;;5015537;28;20037;-84
2021/05/23 07:00:21;;;;;;;0.80;0.43;;;14.40;78.20;;;;;;5008762;28;20076;-84
2021/05/23 07:02:47;;;;;;;0.88;0.52;;;14.60;78.30;;;;;;5012585;28;20069;-84
2021/05/23 07:05:13;;;;;;;0.80;0.30;;;14.80;77.10;;;;;;4996003;28;20093;-83
2021/05/23 07:07:39;;;;;;;0.93;0.70;;;15.00;76.70;;;;;;4997143;28;20089;-83
2021/05/23 07:10:05;;;;;;;1.35;0.40;;;15.10;76.40;;;;;;5000357;28;20042;-86
2021/05/23 07:12:30;;;;;;;1.95;0.43;;;15.30;75.60;;;;;;5014589;28;20144;-84
2021/05/23 07:14:56;;;;;;;2.05;0.50;;;15.30;74.90;;;;;;5019970;28;20046;-84
2021/05/23 07:17:24;;;;;;;1.95;0.50;;;15.30;75.10;;;;;;5015582;28;20038;-83
2021/05/23 07:19:49;;;;;;;2.30;0.60;;;15.30;74.20;;;;;;5015900;28;20034;-84
2021/05/23 07:22:15;;;;;;;2.00;0.30;;;15.30;73.70;;;;;;5024172;28;20498;-83
2021/05/23 07:24:40;;;;;;;1.48;0.40;;;15.20;74.00;;;;;;5012441;28;20069;-84
2021/05/23 07:27:06;;;;;;;2.80;0.55;;;15.20;74.80;;;;;;5002894;28;20038;-84
2021/05/23 07:29:35;;;;;;;1.23;0.57;;;15.20;74.30;;;;;;5008404;28;20089;-84
2021/05/23 07:32:00;;;;;;;3.33;0.80;;;15.30;74.50;;;;;;5011649;28;20049;-84
2021/05/23 07:34:25;;;;;;;0.77;0.52;;;15.40;73.70;;;;;;5003378;28;20038;-85
2021/05/23 07:36:51;;;;;;;3.53;0.45;;;15.50;73.70;;;;;;5008954;28;20077;-86
2021/05/23 07:39:17;;;;;;;0.80;0.40;;;15.70;73.50;;;;;;5016186;28;20044;-85
2021/05/23 07:41:43;;;;;;;1.50;0.50;;;15.80;73.40;;;;;;5016700;28;20034;-86
2021/05/23 07:44:08;;;;;;;0.98;0.40;;;15.80;72.80;;;;;;5016906;28;20107;-85
2021/05/23 07:46:34;;;;;;;0.40;0.30;;;15.90;72.20;;;;;;5016402;28;20061;-84
2021/05/23 07:48:59;;;;;;;0.75;0.30;;;16.10;71.90;;;;;;5016339;28;20077;-87
2021/05/23 07:51:25;;;;;;;0.95;0.40;;;16.10;71.50;;;;;;5015528;28;20052;-86
2021/05/23 07:53:51;;;;;;;1.13;0.40;;;16.20;71.80;;;;;;5015795;28;20088;-85
2021/05/23 07:56:29;;;;;;;1.15;0.40;;;16.30;71.80;;;;;;5011782;28;20045;-88
2021/05/23 07:58:54;;;;;;;1.40;0.60;;;16.20;71.50;;;;;;5006525;28;20069;-85
2021/05/23 08:01:21;;;;;;;1.90;0.52;;;16.10;71.50;;;;;;5016134;28;20505;-85
2021/05/23 08:03:46;;;;;;;2.63;0.55;;;16.00;71.80;;;;;;5016525;28;20133;-88
2021/05/23 08:06:13;;;;;;;1.70;0.30;;;16.00;71.40;;;;;;5015184;28;20128;-85
2021/05/23 08:08:39;;;;;;;1.38;0.40;;;16.10;71.30;;;;;;5006638;28;20367;-85
2021/05/23 08:11:04;;;;;;;0.98;0.50;;;16.30;69.90;;;;;;5000703;28;20132;-84
2021/05/23 08:13:30;;;;;;;0.65;0.47;;;16.40;71.60;;;;;;5016334;28;20061;-88
2021/05/23 08:15:57;;;;;;;0.95;0.40;;;16.60;69.70;;;;;;5014818;28;20030;-89
2021/05/23 08:18:32;;;;;;;1.13;0.35;;;16.70;70.40;;;;;;5006798;28;20065;-87
2021/05/23 08:21:04;;;;;;;7.18;0.55;;;16.90;68.10;;;;;;4998998;28;20045;-87
2021/05/23 08:23:31;;;;;;;1.45;0.45;;;17.00;69.70;;;;;;5003072;28;20471;-86
2021/05/23 08:25:58;;;;;;;2.40;0.50;;;17.20;67.80;;;;;;5011445;28;20140;-86
2021/05/23 08:28:24;;;;;;;1.25;0.43;;;17.20;68.30;;;;;;5011147;28;20042;-87
2021/05/23 08:30:50;;;;;;;1.15;0.40;;;17.40;68.90;;;;;;5013869;28;20073;-84
2021/05/23 08:33:15;;;;;;;0.60;0.40;;;17.50;67.30;;;;;;5000290;28;20326;-85
2021/05/23 08:35:42;;;;;;;0.60;0.30;;;17.50;65.20;;;;;;5010000;28;20041;-86
2021/05/23 08:38:08;;;;;;;2.28;0.70;;;17.50;66.70;;;;;;5015220;28;20046;-86
2021/05/23 08:40:35;;;;;;;0.70;0.60;;;17.50;66.50;;;;;;4964680;28;20037;-86
2021/05/23 08:43:02;;;;;;;2.83;1.08;;;17.40;65.90;;;;;;5016990;28;20030;-86
2021/05/23 08:45:28;;;;;;;1.42;0.40;;;17.30;66.00;;;;;;5027858;28;20297;-86
2021/05/23 08:47:54;;;;;;;2.35;0.50;;;17.30;67.20;;;;;;5005574;28;20038;-84
2021/05/23 08:50:22;;;;;;;1.08;0.50;;;17.20;65.00;;;;;;5017633;28;20061;-87
2021/05/23 08:52:56;;;;;;;4.63;0.73;;;17.30;65.60;;;;;;5014737;28;20038;-86
2021/05/23 08:55:22;;;;;;;2.03;0.80;;;17.40;65.80;;;;;;5016157;28;20063;-88
2021/05/23 08:57:59;;;;;;;1.95;0.47;;;17.50;64.80;;;;;;5011641;28;21101;-86
2021/05/23 09:00:25;;;;;;;1.80;0.65;;;17.60;64.70;;;;;;5011061;28;20049;-84
2021/05/23 09:03:04;;;;;;;1.08;0.50;;;17.60;65.60;;;;;;5011969;28;20053;-78
2021/05/23 09:05:43;;;;;;;1.40;0.50;;;17.40;64.30;;;;;;5010202;28;20066;-85
2021/05/23 09:08:16;;;;;;;1.50;0.50;;;17.10;64.80;;;;;;5014910;28;20042;-85
2021/05/23 09:10:44;;;;;;;1.52;0.40;;;16.90;65.50;;;;;;5024603;28;20042;-75
2021/05/23 09:13:11;;;;;;;1.80;0.40;;;16.70;66.30;;;;;;5005341;28;20123;-77
2021/05/23 09:15:37;;;;;;;1.05;0.40;;;16.80;68.00;;;;;;5013569;28;20120;-76
2021/05/23 09:18:11;;;;;;;0.57;0.40;;;16.70;67.00;;;;;;5013889;28;20042;-76
2021/05/23 09:20:40;;;;;;;2.50;0.57;;;16.70;67.30;;;;;;5008122;28;20040;-78
2021/05/23 09:23:17;;;;;;;2.05;0.50;;;16.70;68.50;;;;;;5004581;28;20574;-76
2021/05/23 09:25:42;;;;;;;1.05;0.55;;;16.70;66.00;;;;;;5013137;28;20037;-75
2021/05/23 09:28:08;;;;;;;1.13;0.38;;;16.70;66.80;;;;;;5004869;28;20042;-75
2021/05/23 09:30:37;;;;;;;0.95;0.30;;;16.70;66.80;;;;;;4999249;28;20064;-74
2021/05/23 09:33:02;;;;;;;5.60;0.40;;;16.80;65.30;;;;;;5001647;28;20650;-75
2021/05/23 09:35:29;;;;;;;1.15;0.60;;;16.90;66.30;;;;;;4998858;28;20057;-75
2021/05/23 09:37:59;;;;;;;1.10;0.45;;;16.80;65.40;;;;;;5003633;28;20042;-76
2021/05/23 09:40:28;;;;;;;4.50;0.52;;;16.80;67.30;;;;;;5009676;28;20030;-75
2021/05/23 09:42:56;;;;;;;2.50;0.60;;;16.90;69.20;;;;;;5010877;28;20152;-75
2021/05/23 09:45:23;;;;;;;1.33;0.45;;;17.20;66.50;;;;;;5013267;28;20052;-75
2021/05/23 09:47:58;;;;;;;2.35;0.60;;;17.40;67.20;;;;;;5016502;28;20157;-85
2021/05/23 09:50:41;;;;;;;9.63;1.90;;;17.50;65.30;;;;;;5012709;28;20034;-76
2021/05/23 09:53:28;;;;;;;2.13;0.47;;;17.60;66.80;;;;;;5009362;28;20076;-76
2021/05/23 09:56:06;;;;;;;1.13;0.60;;;17.40;66.60;;;;;;5001203;28;20271;-79
2021/05/23 09:58:41;;;;;;;5.38;0.98;;;17.20;67.20;;;;;;5000861;28;20153;-77
2021/05/23 10:01:23;;;;;;;2.17;0.50;;;17.00;67.50;;;;;;5019161;28;20073;-77
2021/05/23 10:03:49;;;;;;;9.25;0.90;;;16.80;68.80;;;;;;5009106;28;20045;-76
2021/05/23 10:06:29;;;;;;;2.03;0.50;;;16.80;69.30;;;;;;5008072;28;20471;-79
2021/05/23 10:08:55;;;;;;;1.25;0.73;;;16.90;68.30;;;;;;5003434;28;20112;-75
2021/05/23 10:11:21;;;;;;;1.67;0.40;;;17.00;68.60;;;;;;5013573;28;20057;-75
2021/05/23 10:13:47;;;;;;;3.67;1.05;;;17.10;67.10;;;;;;5014456;28;20041;-76
2021/05/23 10:16:13;;;;;;;2.63;0.60;;;17.10;68.10;;;;;;5015596;28;20050;-76
2021/05/23 10:18:39;;;;;;;2.15;0.47;;;17.00;69.10;;;;;;5013110;28;20105;-75
2021/05/23 10:21:05;;;;;;;1.35;0.40;;;16.80;69.40;;;;;;5009327;28;20310;-75
2021/05/23 10:23:42;;;;;;;1.25;0.60;;;16.70;70.90;;;;;;5004302;28;20116;-75
2021/05/23 10:26:11;;;;;;;5.22;0.95;;;16.60;70.80;;;;;;5006630;28;20045;-75
2021/05/23 10:28:42;;;;;;;1.40;0.65;;;16.70;71.20;;;;;;5010182;28;20330;-76
2021/05/23 10:31:08;;;;;;;1.00;0.52;;;16.80;70.10;;;;;;5010385;28;20040;-75
2021/05/23 10:33:34;;;;;;;1.88;0.40;;;16.70;69.50;;;;;;5016397;28;20065;-76
2021/05/23 10:36:00;;;;;;;2.58;0.60;;;16.60;70.50;;;;;;5013241;28;21776;-76
2021/05/23 10:38:27;;;;;;;0.82;0.40;;;16.50;71.20;;;;;;4999838;28;20034;-75
2021/05/23 10:41:04;;;;;;;0.73;0.50;;;16.40;69.40;;;;;;5015956;28;20029;-75
2021/05/23 10:43:32;;;;;;;0.52;0.30;;;16.40;70.70;;;;;;5016231;28;20045;-76
2021/05/23 10:46:12;;;;;;;3.95;0.45;;;16.40;68.90;;;;;;5013693;28;20041;-75
2021/05/23 10:48:38;;;;;;;2.45;0.70;;;16.60;68.90;;;;;;5015479;28;20046;-75
2021/05/23 10:51:17;;;;;;;2.47;1.60;;;16.70;68.10;;;;;;5008669;28;20274;-75
2021/05/23 10:53:44;;;;;;;3.28;1.88;;;16.70;68.30;;;;;;5008984;28;20467;-75
2021/05/23 10:56:26;;;;;;;1.23;0.65;;;16.70;68.60;;;;;;4997261;28;20117;-76
2021/05/23 10:59:00;;;;;;;2.08;0.73;;;16.80;68.10;;;;;;5001122;28;20465;-75
2021/05/23 11:01:43;;;;;;;2.33;0.50;;;16.80;69.00;;;;;;5007069;28;20369;-76
2021/05/23 11:04:12;;;;;;;0.47;0.30;;;16.90;70.60;;;;;;5025143;28;20053;-76
2021/05/23 11:06:38;;;;;;;0.82;0.38;;;17.10;68.80;;;;;;5009664;28;20080;-76
2021/05/23 11:09:11;;;;;;;0.88;0.50;;;17.30;68.00;;;;;;5011171;28;20065;-76
2021/05/23 11:11:38;;;;;;;0.52;0.40;;;17.40;67.20;;;;;;5005958;28;20045;-77
2021/05/23 11:14:19;;;;;;;0.40;0.30;;;17.40;67.60;;;;;;5011849;28;20096;-76
2021/05/23 11:16:55;;;;;;;0.82;0.30;;;17.30;68.40;;;;;;5009157;28;20041;-76
2021/05/23 11:19:23;;;;;;;1.33;0.57;;;17.20;69.30;;;;;;4999081;28;20054;-76
2021/05/23 11:21:50;;;;;;;0.93;0.50;;;17.30;68.20;;;;;;5010279;28;20045;-76
2021/05/23 11:24:17;;;;;;;0.77;0.40;;;17.50;67.10;;;;;;5009981;28;20041;-76
2021/05/23 11:26:43;;;;;;;0.25;0.25;;;17.60;67.70;;;;;;5009904;28;20053;-76
2021/05/23 11:29:09;;;;;;;0.43;0.43;;;17.70;66.40;;;;;;5003225;28;20050;-77
2021/05/23 11:31:40;;;;;;;0.30;0.30;;;17.90;65.10;;;;;;5008374;28;20046;-76
2021/05/23 11:34:07;;;;;;;0.30;0.30;;;18.00;64.40;;;;;;5009534;28;20041;-76
2021/05/23 11:36:35;;;;;;;0.50;0.30;;;18.10;64.90;;;;;;5006366;28;20133;-77
2021/05/23 11:39:05;;;;;;;0.30;0.30;;;18.10;64.40;;;;;;5002986;28;20125;-76
2021/05/23 11:41:39;;;;;;;0.50;0.30;;;18.00;64.40;;;;;;5018638;28;20543;-76
2021/05/23 11:44:10;;;;;;;1.35;0.30;;;18.00;63.80;;;;;;5010059;28;20418;-76
2021/05/23 11:46:37;;;;;;;0.65;0.32;;;18.00;64.60;;;;;;5024101;28;20050;-77
2021/05/23 11:49:02;;;;;;;0.55;0.40;;;18.10;64.70;;;;;;5024825;28;20045;-77
2021/05/23 11:51:33;;;;;;;0.40;0.40;;;18.10;66.00;;;;;;5007150;28;20056;-76
2021/05/23 11:54:00;;;;;;;0.47;0.30;;;18.10;65.80;;;;;;4998332;28;20116;-75
2021/05/23 11:56:31;;;;;;;1.23;0.45;;;18.10;65.80;;;;;;5013372;28;20038;-75
2021/05/23 11:58:59;;;;;;;1.77;0.52;;;18.20;66.80;;;;;;5009773;28;20424;-77
2021/05/23 12:01:28;;;;;;;0.95;0.73;;;18.40;64.80;;;;;;5008080;28;20038;-76
2021/05/23 12:03:58;;;;;;;0.82;0.40;;;18.30;63.80;;;;;;5011546;28;20034;-76
2021/05/23 12:06:25;;;;;;;0.73;0.50;;;18.10;64.70;;;;;;5010255;28;20030;-76
2021/05/23 12:08:50;;;;;;;0.70;0.50;;;18.10;66.10;;;;;;5004241;28;20132;-77
2021/05/23 12:11:16;;;;;;;0.30;0.30;;;18.10;65.60;;;;;;5006078;28;20038;-77
2021/05/23 12:13:52;;;;;;;0.85;0.40;;;18.10;64.90;;;;;;5023176;28;20124;-77
2021/05/23 12:16:19;;;;;;;1.00;0.35;;;17.90;65.30;;;;;;5023976;28;20057;-76
2021/05/23 12:18:52;;;;;;;2.28;0.40;;;17.50;67.30;;;;;;5010985;28;20120;-76
2021/05/23 12:21:20;;;;;;;0.60;0.30;;;17.20;67.90;;;;;;5009689;28;20394;-77
2021/05/23 12:23:48;;;;;;;0.60;0.40;;;16.90;67.70;;;;;;5013203;28;20035;-77
2021/05/23 12:26:15;;;;;;;0.52;0.40;;;16.90;69.10;;;;;;5006605;28;20348;-76
2021/05/23 12:28:49;;;;;;;0.60;0.40;;;17.00;68.80;;;;;;5016927;28;20068;-76
2021/05/23 12:31:19;;;;;;;1.13;0.70;;;17.20;68.00;;;;;;5002048;28;20038;-76
2021/05/23 12:33:52;;;;;;;1.00;0.57;;;17.40;67.90;;;;;;5000712;28;20038;-76
2021/05/23 12:36:18;;;;;;;;;;;17.70;67.80;;;;;;4999836;28;20038;-76
2021/05/23 12:38:54;;;;;;;0.60;0.38;;;17.90;67.50;;;;;;5000476;28;19921;-76
2021/05/23 12:41:20;;;;;;;3.20;0.50;;;17.90;66.20;;;;;;5012798;28;20306;-76
2021/05/23 12:43:46;;;;;;;1.05;0.60;;;17.90;66.20;;;;;;5017533;28;20033;-76
2021/05/23 12:46:12;;;;;;;1.85;0.40;;;18.00;67.10;;;;;;5018765;28;20081;-76
2021/05/23 12:48:40;;;;;;;0.60;0.50;;;18.10;67.30;;;;;;5017645;28;20397;-77
2021/05/23 12:51:11;;;;;;;0.60;0.50;;;18.20;65.30;;;;;;5017336;28;20056;-76